Time;durP1;ratioP1;P1;durP2;ratioP2;P2;SDS_P1;SDS_P2;PMS_P1;PMS_P2;Temp;Humidity;BMP_temperature;BMP_pressure;BME280_temperature;BME280_humidity;BME280_pressure;Samples;Min_cycle;Max_cycle;Signal;HPM_P1;HPM_P2
2023/10/24 00:01:53;;;;;;;18.10;10.50;;;10.20;99.90;;;;;;4993803;28;20130;-75
2023/10/24 00:04:19;;;;;;;18.77;10.20;;;10.20;99.90;;;;;;4991862;28;20063;-75
2023/10/24 00:06:44;;;;;;;18.23;10.38;;;10.20;99.90;;;;;;4991218;28;20048;-75
2023/10/24 00:09:10;;;;;;;18.30;10.43;;;10.10;99.90;;;;;;4990288;28;20045;-75
2023/10/24 00:11:35;;;;;;;19.33;10.95;;;10.20;99.90;;;;;;4993532;28;20074;-74
2023/10/24 00:14:01;;;;;;;17.33;10.55;;;10.10;99.90;;;;;;4986002;28;20058;-74
2023/10/24 00:16:27;;;;;;;16.73;9.93;;;10.20;99.90;;;;;;4992363;28;20136;-75
2023/10/24 00:18:53;;;;;;;19.05;11.38;;;10.20;99.90;;;;;;4992376;28;20507;-75
2023/10/24 00:21:18;;;;;;;20.30;10.55;;;10.10;99.90;;;;;;4989765;28;20038;-75
2023/10/24 00:23:44;;;;;;;17.23;10.95;;;10.10;99.90;;;;;;4972817;28;20103;-74
2023/10/24 00:26:10;;;;;;;21.02;10.52;;;10.20;99.90;;;;;;4972519;28;20461;-75
2023/10/24 00:28:36;;;;;;;17.30;10.50;;;10.20;99.90;;;;;;4988074;28;20477;-75
2023/10/24 00:31:02;;;;;;;15.57;9.15;;;10.50;99.90;;;;;;4989482;28;20053;-75
2023/10/24 00:33:27;;;;;;;16.27;10.60;;;10.10;99.90;;;;;;4988633;28;20624;-75
2023/10/24 00:35:53;;;;;;;22.95;11.27;;;10.20;99.90;;;;;;4972585;28;20140;-74
2023/10/24 00:38:18;;;;;;;17.38;11.02;;;10.10;99.90;;;;;;4988644;28;20054;-75
2023/10/24 00:40:44;;;;;;;17.02;11.20;;;10.20;99.90;;;;;;4974019;28;20097;-75
2023/10/24 00:43:10;;;;;;;19.35;10.63;;;10.20;99.90;;;;;;4973236;28;20340;-74
2023/10/24 00:45:37;;;;;;;21.85;11.02;;;10.20;99.90;;;;;;4969924;28;20039;-74
2023/10/24 00:48:05;;;;;;;19.23;10.35;;;10.10;99.90;;;;;;4953717;28;20129;-75
2023/10/24 00:50:32;;;;;;;19.58;11.40;;;10.10;99.90;;;;;;4969618;28;20140;-74
2023/10/24 00:52:59;;;;;;;18.30;10.85;;;10.10;99.90;;;;;;4984702;28;20518;-75
2023/10/24 00:55:25;;;;;;;18.90;10.75;;;10.10;99.90;;;;;;4986305;28;20054;-75
2023/10/24 00:57:54;;;;;;;20.73;10.80;;;10.10;99.90;;;;;;4988375;28;20052;-74
2023/10/24 01:00:23;;;;;;;17.10;10.90;;;10.10;99.90;;;;;;4988981;28;20561;-75
2023/10/24 01:02:49;;;;;;;17.48;11.10;;;10.10;99.90;;;;;;4988372;28;20450;-76
2023/10/24 01:05:16;;;;;;;19.98;10.68;;;10.10;99.90;;;;;;4971996;28;20099;-76
2023/10/24 01:07:42;;;;;;;17.50;10.70;;;10.20;99.90;;;;;;4987603;28;20041;-76
2023/10/24 01:10:09;;;;;;;19.75;10.73;;;10.10;99.90;;;;;;4972394;28;20236;-75
2023/10/24 01:12:34;;;;;;;20.80;11.73;;;10.10;99.90;;;;;;4972381;28;20407;-76
2023/10/24 01:15:00;;;;;;;18.88;11.38;;;10.10;99.90;;;;;;4987794;28;20294;-75
2023/10/24 01:17:26;;;;;;;20.52;11.32;;;10.10;99.90;;;;;;4975645;28;20104;-75
2023/10/24 01:19:51;;;;;;;17.70;11.25;;;10.10;99.90;;;;;;4988599;28;20433;-75
2023/10/24 01:22:17;;;;;;;19.38;11.40;;;10.10;99.90;;;;;;5003973;28;20140;-75
2023/10/24 01:24:44;;;;;;;20.17;11.27;;;10.10;99.90;;;;;;4983481;28;20049;-75
2023/10/24 01:27:11;;;;;;;19.27;11.95;;;10.10;99.90;;;;;;4958634;28;20533;-75
2023/10/24 01:29:37;;;;;;;17.58;11.15;;;10.10;99.90;;;;;;4980326;28;20495;-75
2023/10/24 01:32:03;;;;;;;20.83;11.02;;;10.10;99.90;;;;;;4955657;28;20049;-75
2023/10/24 01:34:29;;;;;;;22.80;10.90;;;10.10;99.90;;;;;;4977636;28;20049;-76
2023/10/24 01:36:54;;;;;;;17.85;11.10;;;10.20;99.90;;;;;;4969844;28;20392;-75
2023/10/24 01:39:20;;;;;;;19.00;11.77;;;10.10;99.90;;;;;;4990472;28;20485;-75
2023/10/24 01:41:46;;;;;;;21.75;12.02;;;10.10;99.90;;;;;;4974110;28;20509;-75
2023/10/24 01:44:12;;;;;;;21.92;12.55;;;10.10;99.90;;;;;;4989550;28;20057;-76
2023/10/24 01:46:37;;;;;;;22.35;13.02;;;10.10;99.90;;;;;;4988194;28;20549;-76
2023/10/24 01:49:04;;;;;;;23.65;13.63;;;10.10;99.90;;;;;;4989589;28;20049;-76
2023/10/24 01:51:30;;;;;;;22.95;13.82;;;10.10;99.90;;;;;;4975073;28;20045;-76
2023/10/24 01:53:55;;;;;;;22.05;13.90;;;10.10;99.90;;;;;;4975851;28;20120;-78
2023/10/24 01:56:21;;;;;;;22.17;13.57;;;10.10;99.90;;;;;;4991166;28;20037;-77
2023/10/24 01:58:47;;;;;;;21.85;12.63;;;10.10;99.90;;;;;;4990425;28;20069;-77
2023/10/24 02:01:12;;;;;;;18.98;13.35;;;10.10;99.90;;;;;;4986645;28;20045;-77
2023/10/24 02:03:38;;;;;;;21.35;13.70;;;11.00;99.90;;;;;;4986128;28;20069;-77
2023/10/24 02:06:04;;;;;;;21.95;13.02;;;10.20;99.90;;;;;;4984503;28;20061;-77
2023/10/24 02:08:30;;;;;;;21.05;13.45;;;10.10;99.90;;;;;;4972815;28;20038;-77
2023/10/24 02:10:55;;;;;;;23.20;14.05;;;10.10;99.90;;;;;;4973199;28;20145;-78
2023/10/24 02:13:21;;;;;;;21.65;13.85;;;10.20;99.90;;;;;;4988593;28;20140;-77
2023/10/24 02:15:47;;;;;;;23.80;14.23;;;10.10;99.90;;;;;;4986265;28;20073;-77
2023/10/24 02:18:12;;;;;;;21.98;13.70;;;10.10;99.90;;;;;;4972039;28;20085;-76
2023/10/24 02:20:41;;;;;;;23.52;14.25;;;10.10;99.90;;;;;;4972493;28;20077;-77
2023/10/24 02:23:06;;;;;;;19.52;13.00;;;10.20;99.90;;;;;;4971199;28;20541;-77
2023/10/24 02:25:36;;;;;;;19.05;13.23;;;10.10;99.90;;;;;;4988232;28;20124;-77
2023/10/24 02:28:02;;;;;;;20.20;13.85;;;10.20;99.90;;;;;;4971931;28;20825;-76
2023/10/24 02:30:28;;;;;;;18.25;12.07;;;10.20;99.90;;;;;;4972546;28;20037;-76
2023/10/24 02:33:00;;;;;;;17.80;12.45;;;10.10;99.90;;;;;;4986513;28;20696;-76
2023/10/24 02:35:29;;;;;;;19.52;12.48;;;10.20;99.90;;;;;;4971888;28;20046;-78
2023/10/24 02:37:54;;;;;;;18.00;12.20;;;10.20;99.90;;;;;;4971152;28;20380;-78
2023/10/24 02:40:21;;;;;;;17.58;11.60;;;10.20;99.90;;;;;;4988668;28;20065;-78
2023/10/24 02:42:46;;;;;;;16.75;11.90;;;10.20;99.90;;;;;;4988367;28;20046;-78
2023/10/24 02:45:12;;;;;;;17.55;11.38;;;10.20;99.90;;;;;;4972316;28;20048;-77
2023/10/24 02:47:38;;;;;;;16.80;11.10;;;10.20;99.90;;;;;;4970562;28;20037;-77
2023/10/24 02:50:04;;;;;;;19.63;11.32;;;10.20;99.90;;;;;;4971084;28;20059;-77
2023/10/24 02:52:30;;;;;;;16.67;11.23;;;10.20;99.90;;;;;;4970895;28;20042;-78
2023/10/24 02:54:56;;;;;;;17.02;10.73;;;10.20;99.90;;;;;;4987551;28;20096;-77
2023/10/24 02:57:22;;;;;;;14.48;10.35;;;10.60;99.90;;;;;;4970550;28;20253;-78
2023/10/24 02:59:49;;;;;;;17.00;10.55;;;10.30;99.90;;;;;;4972273;28;20065;-77
2023/10/24 03:02:14;;;;;;;16.00;10.45;;;10.20;99.90;;;;;;4971690;28;20050;-77
2023/10/24 03:04:40;;;;;;;16.98;10.35;;;10.50;99.90;;;;;;4987235;28;20049;-77
2023/10/24 03:07:06;;;;;;;14.00;9.63;;;10.20;99.90;;;;;;4978237;28;20050;-78
2023/10/24 03:09:33;;;;;;;16.85;10.35;;;10.30;99.90;;;;;;4987649;28;20065;-79
2023/10/24 03:11:58;;;;;;;14.20;9.75;;;10.30;99.90;;;;;;4971849;28;20215;-77
2023/10/24 03:14:24;;;;;;;13.93;9.60;;;10.30;99.90;;;;;;5006024;28;20049;-78
2023/10/24 03:16:53;;;;;;;13.27;8.98;;;10.30;99.90;;;;;;5004628;28;20628;-77
2023/10/24 03:19:18;;;;;;;14.65;9.40;;;10.30;99.90;;;;;;5003589;28;20041;-78
2023/10/24 03:21:44;;;;;;;14.55;9.52;;;10.30;99.90;;;;;;4987194;28;20100;-77
2023/10/24 03:24:10;;;;;;;13.10;9.00;;;10.60;99.90;;;;;;4985078;28;20069;-78
2023/10/24 03:26:36;;;;;;;14.20;9.02;;;10.40;99.90;;;;;;4986733;28;20050;-79
2023/10/24 03:29:02;;;;;;;13.40;9.00;;;10.40;99.90;;;;;;5002489;28;20137;-78
2023/10/24 03:31:28;;;;;;;15.07;9.07;;;10.40;99.90;;;;;;5003312;28;20042;-78
2023/10/24 03:33:53;;;;;;;13.75;8.93;;;10.50;99.90;;;;;;5000060;28;20509;-78
2023/10/24 03:36:19;;;;;;;13.32;9.25;;;10.40;99.90;;;;;;4969235;28;20045;-77
2023/10/24 03:38:45;;;;;;;14.02;9.20;;;10.50;99.90;;;;;;4982801;28;20137;-78
2023/10/24 03:41:10;;;;;;;12.10;8.05;;;10.40;99.90;;;;;;4983752;28;20482;-77
2023/10/24 03:43:36;;;;;;;12.90;8.93;;;10.40;99.90;;;;;;5004351;28;20049;-76
2023/10/24 03:46:08;;;;;;;15.40;9.20;;;10.40;99.90;;;;;;4987507;28;20117;-77
2023/10/24 03:48:35;;;;;;;14.63;9.23;;;10.50;99.90;;;;;;4970665;28;20061;-78
2023/10/24 03:51:01;;;;;;;14.48;8.50;;;10.50;99.90;;;;;;4984901;28;20460;-78
2023/10/24 03:53:27;;;;;;;14.98;9.02;;;10.50;99.90;;;;;;5004850;28;20042;-78
2023/10/24 03:55:59;;;;;;;12.40;7.75;;;10.50;99.90;;;;;;4987116;28;20045;-77
2023/10/24 03:58:26;;;;;;;13.50;8.73;;;10.50;99.90;;;;;;5002832;28;20557;-78
2023/10/24 04:00:52;;;;;;;16.20;9.55;;;10.50;99.90;;;;;;5003882;28;20069;-79
2023/10/24 04:03:19;;;;;;;13.45;8.15;;;10.50;99.90;;;;;;5005417;28;20453;-79
2023/10/24 04:05:45;;;;;;;14.70;9.00;;;10.50;99.90;;;;;;5005194;28;20053;-79
2023/10/24 04:08:11;;;;;;;15.75;9.57;;;10.90;99.90;;;;;;4970466;28;20045;-79
2023/10/24 04:10:38;;;;;;;14.13;9.15;;;10.60;99.90;;;;;;4987410;28;20208;-79
2023/10/24 04:13:04;;;;;;;13.63;9.40;;;10.60;99.90;;;;;;5005327;28;20050;-79
2023/10/24 04:15:30;;;;;;;15.65;9.88;;;10.60;99.90;;;;;;5005591;28;20474;-79
2023/10/24 04:17:56;;;;;;;14.13;9.75;;;10.60;99.90;;;;;;4970322;28;20038;-79
2023/10/24 04:20:21;;;;;;;16.80;10.02;;;10.70;99.90;;;;;;5002218;28;20125;-80
2023/10/24 04:22:47;;;;;;;14.88;9.82;;;10.60;99.90;;;;;;4988470;28;20419;-75
2023/10/24 04:25:30;;;;;;;15.48;9.52;;;10.60;99.90;;;;;;4965397;28;20076;-78
2023/10/24 04:27:56;;;;;;;15.88;10.20;;;10.90;99.90;;;;;;4988464;28;20483;-79
2023/10/24 04:30:22;;;;;;;19.90;10.45;;;10.70;99.90;;;;;;4991336;28;20484;-78
2023/10/24 04:32:49;;;;;;;15.45;10.30;;;10.70;99.90;;;;;;4983478;28;20069;-78
2023/10/24 04:35:15;;;;;;;16.73;9.95;;;10.00;99.90;;;;;;4991721;28;20042;-78
2023/10/24 04:37:40;;;;;;;17.40;10.10;;;10.60;99.90;;;;;;5008481;28;20088;-77
2023/10/24 04:40:07;;;;;;;15.15;10.43;;;10.70;99.90;;;;;;4973508;28;20128;-78
2023/10/24 04:42:32;;;;;;;15.63;10.52;;;10.70;99.90;;;;;;4990635;28;20499;-75
2023/10/24 04:44:58;;;;;;;16.58;10.68;;;10.80;99.90;;;;;;4991252;28;20243;-77
2023/10/24 04:47:25;;;;;;;14.55;10.27;;;10.60;99.90;;;;;;4990817;28;20045;-76
2023/10/24 04:49:53;;;;;;;15.18;10.43;;;10.80;99.90;;;;;;5008516;28;20384;-78
2023/10/24 04:52:19;;;;;;;17.02;10.82;;;10.80;99.90;;;;;;5007444;28;20038;-78
2023/10/24 04:54:45;;;;;;;15.02;10.00;;;10.80;99.90;;;;;;4992054;28;20052;-78
2023/10/24 04:57:10;;;;;;;16.00;10.20;;;10.80;99.90;;;;;;4991154;28;20049;-78
2023/10/24 04:59:37;;;;;;;16.67;10.52;;;10.90;99.90;;;;;;5009287;28;20042;-80
2023/10/24 05:02:03;;;;;;;14.30;10.32;;;10.80;99.90;;;;;;4995805;28;20536;-78
2023/10/24 05:04:29;;;;;;;18.55;11.60;;;10.80;99.90;;;;;;4991580;28;20038;-78
2023/10/24 05:06:56;;;;;;;16.30;11.32;;;10.80;99.90;;;;;;4975363;28;20136;-77
2023/10/24 05:09:21;;;;;;;17.33;11.65;;;10.90;99.90;;;;;;4988993;28;20057;-78
2023/10/24 05:11:47;;;;;;;15.98;11.18;;;10.90;99.90;;;;;;4990948;28;20358;-79
2023/10/24 05:14:13;;;;;;;18.30;11.57;;;10.90;99.90;;;;;;4990372;28;20079;-78
2023/10/24 05:16:39;;;;;;;15.23;11.43;;;10.90;99.90;;;;;;4973371;28;20049;-77
2023/10/24 05:19:05;;;;;;;16.85;11.82;;;11.00;99.90;;;;;;4985666;28;20100;-78
2023/10/24 05:21:32;;;;;;;16.23;12.38;;;10.90;99.90;;;;;;4990565;28;20064;-77
2023/10/24 05:23:59;;;;;;;18.83;12.68;;;11.00;99.90;;;;;;4971124;28;20058;-76
2023/10/24 05:26:25;;;;;;;18.05;12.93;;;11.70;99.90;;;;;;4989968;28;20502;-78
2023/10/24 05:28:53;;;;;;;21.08;13.63;;;11.40;99.90;;;;;;5004903;28;20096;-75
2023/10/24 05:31:21;;;;;;;18.60;12.75;;;11.00;99.90;;;;;;4990121;28;20038;-75
2023/10/24 05:33:49;;;;;;;20.33;13.98;;;11.00;99.90;;;;;;4989190;28;20041;-78
2023/10/24 05:36:17;;;;;;;20.55;13.95;;;11.00;99.90;;;;;;4989373;28;20486;-77
2023/10/24 05:38:43;;;;;;;20.65;15.23;;;11.10;99.90;;;;;;4986768;28;20088;-78
2023/10/24 05:41:09;;;;;;;17.38;13.45;;;11.10;99.90;;;;;;4972949;28;20042;-77
2023/10/24 05:43:36;;;;;;;18.88;13.93;;;11.10;99.90;;;;;;4989858;28;20042;-79
2023/10/24 05:46:03;;;;;;;19.25;13.73;;;11.10;99.90;;;;;;4973861;28;20200;-78
2023/10/24 05:48:29;;;;;;;19.80;14.18;;;11.10;99.90;;;;;;4989791;28;20436;-79
2023/10/24 05:50:54;;;;;;;18.35;13.63;;;11.10;99.90;;;;;;4993418;28;20442;-78
2023/10/24 05:53:21;;;;;;;18.33;13.23;;;11.00;99.90;;;;;;5005301;28;20139;-78
2023/10/24 05:55:47;;;;;;;20.75;14.00;;;11.10;99.90;;;;;;4988621;28;20104;-78
2023/10/24 05:58:13;;;;;;;19.13;14.48;;;11.10;99.90;;;;;;5005082;28;20677;-77
2023/10/24 06:00:38;;;;;;;21.27;14.73;;;11.10;99.90;;;;;;5004841;28;20069;-76
2023/10/24 06:03:04;;;;;;;19.27;13.85;;;11.20;99.90;;;;;;5006569;28;20089;-77
2023/10/24 06:05:30;;;;;;;19.63;14.57;;;11.10;99.90;;;;;;5005593;28;20056;-78
2023/10/24 06:07:56;;;;;;;21.75;13.60;;;11.30;99.90;;;;;;4987749;28;20561;-83
2023/10/24 06:10:21;;;;;;;19.48;13.30;;;11.10;99.90;;;;;;4973037;28;20053;-81
2023/10/24 06:12:47;;;;;;;20.70;14.48;;;11.10;99.90;;;;;;4989591;28;20034;-82
2023/10/24 06:15:13;;;;;;;21.23;13.90;;;11.10;99.90;;;;;;4989361;28;20052;-82
2023/10/24 06:17:38;;;;;;;18.00;13.40;;;11.10;99.90;;;;;;4970944;28;20039;-82
2023/10/24 06:20:05;;;;;;;17.67;13.77;;;11.20;99.90;;;;;;4973671;28;20454;-83
2023/10/24 06:22:31;;;;;;;20.20;13.07;;;11.10;99.90;;;;;;4984514;28;20510;-82
2023/10/24 06:25:00;;;;;;;21.23;13.38;;;11.10;99.90;;;;;;4975018;28;20478;-83
2023/10/24 06:27:26;;;;;;;20.40;13.95;;;11.20;99.90;;;;;;4981088;28;20048;-82
2023/10/24 06:29:52;;;;;;;15.70;12.15;;;11.20;99.90;;;;;;5012222;28;20053;-83
2023/10/24 06:32:18;;;;;;;15.95;12.35;;;11.10;99.90;;;;;;4987582;28;20073;-80
2023/10/24 06:34:43;;;;;;;18.63;12.13;;;11.20;99.90;;;;;;4994570;28;20514;-83
2023/10/24 06:37:09;;;;;;;23.20;12.85;;;11.20;99.90;;;;;;4983524;28;20479;-83
2023/10/24 06:39:35;;;;;;;18.00;12.98;;;11.20;99.90;;;;;;4968574;28;20666;-82
2023/10/24 06:42:01;;;;;;;20.38;11.80;;;11.20;99.90;;;;;;4968271;28;20480;-82
2023/10/24 06:44:28;;;;;;;16.13;11.43;;;11.20;99.90;;;;;;4970218;28;20321;-81
2023/10/24 06:46:53;;;;;;;17.73;10.35;;;11.30;99.90;;;;;;4975072;28;20048;-82
2023/10/24 06:49:19;;;;;;;16.20;11.43;;;11.50;99.90;;;;;;4974311;28;20438;-81
2023/10/24 06:51:45;;;;;;;15.32;9.68;;;11.20;99.90;;;;;;4983647;28;20057;-82
2023/10/24 06:54:11;;;;;;;13.45;9.65;;;11.20;99.90;;;;;;4986227;28;20052;-82
2023/10/24 06:56:36;;;;;;;15.52;9.82;;;11.20;99.90;;;;;;4981996;28;20038;-82
2023/10/24 06:59:02;;;;;;;13.77;9.63;;;11.20;99.90;;;;;;4975867;28;20049;-81
2023/10/24 07:01:28;;;;;;;13.52;8.85;;;11.20;99.90;;;;;;4997663;28;20069;-81
2023/10/24 07:03:54;;;;;;;13.85;9.02;;;11.20;99.90;;;;;;4979869;28;20050;-83
2023/10/24 07:06:23;;;;;;;14.30;9.43;;;11.20;99.90;;;;;;4983247;28;20510;-81
2023/10/24 07:08:48;;;;;;;13.75;9.77;;;11.20;99.90;;;;;;4974992;28;20143;-82
2023/10/24 07:11:14;;;;;;;13.05;8.70;;;11.20;99.90;;;;;;4971647;28;20066;-80
2023/10/24 07:13:40;;;;;;;14.27;8.90;;;11.30;99.90;;;;;;4981418;28;20084;-81
2023/10/24 07:16:16;;;;;;;13.50;8.98;;;11.20;99.90;;;;;;4965546;28;20062;-81
2023/10/24 07:18:42;;;;;;;13.27;8.93;;;11.20;99.90;;;;;;4979665;28;20034;-81
2023/10/24 07:21:08;;;;;;;15.10;9.50;;;11.20;99.90;;;;;;4982576;28;20046;-81
2023/10/24 07:23:34;;;;;;;14.73;9.60;;;11.20;99.90;;;;;;4984309;28;20058;-79
2023/10/24 07:26:02;;;;;;;16.88;9.77;;;11.20;99.90;;;;;;4980778;28;20085;-82
2023/10/24 07:28:27;;;;;;;12.82;9.43;;;11.20;99.90;;;;;;4972485;28;20038;-80
2023/10/24 07:30:54;;;;;;;14.02;9.45;;;11.20;99.90;;;;;;4982858;28;20038;-81
2023/10/24 07:33:22;;;;;;;14.68;9.23;;;11.40;99.90;;;;;;4975921;28;20046;-82
2023/10/24 07:35:50;;;;;;;17.05;9.30;;;11.20;99.90;;;;;;4974923;28;20147;-81
2023/10/24 07:38:17;;;;;;;15.77;9.38;;;11.20;99.90;;;;;;4968625;28;20042;-81
2023/10/24 07:40:45;;;;;;;14.18;9.27;;;11.10;99.90;;;;;;4985312;28;20046;-79
2023/10/24 07:43:11;;;;;;;15.48;10.38;;;11.20;99.90;;;;;;4973256;28;20141;-81
2023/10/24 07:45:37;;;;;;;15.20;9.77;;;11.10;99.90;;;;;;4976484;28;20099;-82
2023/10/24 07:48:03;;;;;;;15.77;9.77;;;11.40;99.90;;;;;;4965679;28;20491;-82
2023/10/24 07:50:30;;;;;;;15.65;9.93;;;11.30;99.90;;;;;;4978217;28;20039;-83
2023/10/24 07:52:56;;;;;;;17.95;10.05;;;11.10;99.90;;;;;;4964669;28;20038;-82
2023/10/24 07:55:22;;;;;;;16.08;9.60;;;11.10;99.90;;;;;;4957570;28;20064;-83
2023/10/24 07:57:49;;;;;;;19.92;10.48;;;11.20;99.90;;;;;;4976072;28;20066;-82
2023/10/24 08:00:15;;;;;;;15.95;9.50;;;11.20;99.90;;;;;;4976500;28;20068;-83
2023/10/24 08:02:41;;;;;;;17.50;9.93;;;11.20;99.90;;;;;;4973394;28;20458;-81
2023/10/24 08:05:07;;;;;;;15.57;9.63;;;11.20;99.90;;;;;;4961032;28;20455;-81
2023/10/24 08:07:33;;;;;;;17.50;10.27;;;11.10;99.90;;;;;;4969616;28;20057;-81
2023/10/24 08:09:58;;;;;;;16.38;10.75;;;11.20;99.90;;;;;;4990359;28;20054;-81
2023/10/24 08:12:24;;;;;;;18.05;10.55;;;11.20;99.90;;;;;;4989798;28;20391;-82
2023/10/24 08:14:50;;;;;;;14.90;10.20;;;11.10;99.90;;;;;;4987597;28;20034;-81
2023/10/24 08:17:16;;;;;;;16.95;10.18;;;11.10;99.90;;;;;;4972340;28;20041;-81
2023/10/24 08:19:42;;;;;;;16.20;9.80;;;11.10;99.90;;;;;;4971254;28;20532;-82
2023/10/24 08:22:07;;;;;;;13.73;9.95;;;11.20;99.90;;;;;;4982628;28;20145;-81
2023/10/24 08:24:33;;;;;;;15.77;10.25;;;11.20;99.90;;;;;;4988593;28;20073;-80
2023/10/24 08:26:59;;;;;;;18.70;10.68;;;11.20;99.90;;;;;;4985946;28;20511;-80
2023/10/24 08:29:25;;;;;;;17.02;11.02;;;11.20;99.90;;;;;;4990371;28;20084;-80
2023/10/24 08:31:51;;;;;;;20.70;11.35;;;11.20;99.90;;;;;;4989783;28;20462;-80
2023/10/24 08:34:17;;;;;;;17.35;10.82;;;11.20;99.90;;;;;;4985417;28;20076;-80
2023/10/24 08:36:43;;;;;;;17.83;11.00;;;11.40;99.90;;;;;;4983307;28;20173;-80
2023/10/24 08:39:09;;;;;;;18.13;11.50;;;11.20;99.90;;;;;;4985917;28;20081;-79
2023/10/24 08:41:35;;;;;;;17.50;11.50;;;11.20;99.90;;;;;;4984307;28;20454;-80
2023/10/24 08:44:02;;;;;;;20.85;11.40;;;11.20;99.90;;;;;;4982678;28;20057;-80
2023/10/24 08:46:28;;;;;;;19.48;12.02;;;11.20;99.90;;;;;;4988375;28;20049;-80
2023/10/24 08:48:54;;;;;;;21.13;12.02;;;11.20;99.90;;;;;;4978683;28;20050;-81
2023/10/24 08:51:19;;;;;;;18.73;11.77;;;11.20;99.90;;;;;;4987909;28;20050;-80
2023/10/24 08:53:45;;;;;;;22.30;12.25;;;11.20;99.90;;;;;;4989501;28;20041;-80
2023/10/24 08:56:11;;;;;;;18.13;11.65;;;11.20;99.90;;;;;;4969629;28;20049;-78
2023/10/24 08:58:38;;;;;;;20.05;12.13;;;11.20;99.90;;;;;;4977405;28;20506;-80
2023/10/24 09:01:05;;;;;;;22.23;12.43;;;11.20;99.90;;;;;;4969231;28;20135;-79
2023/10/24 09:03:31;;;;;;;17.48;11.43;;;11.20;99.90;;;;;;4971980;28;20038;-79
2023/10/24 09:05:58;;;;;;;19.67;11.93;;;11.50;99.90;;;;;;4991093;28;20045;-80
2023/10/24 09:08:25;;;;;;;17.15;10.95;;;11.20;99.90;;;;;;4974391;28;20050;-80
2023/10/24 09:10:51;;;;;;;18.10;11.52;;;11.30;99.90;;;;;;4971099;28;20084;-80
2023/10/24 09:13:18;;;;;;;19.35;11.88;;;11.30;99.90;;;;;;4981472;28;20172;-80
2023/10/24 09:15:43;;;;;;;19.00;11.40;;;11.20;99.90;;;;;;4989339;28;20147;-80
2023/10/24 09:18:09;;;;;;;15.85;10.77;;;11.20;99.90;;;;;;4966849;28;20515;-80
2023/10/24 09:20:35;;;;;;;18.30;11.43;;;11.20;99.90;;;;;;4969712;28;20042;-79
2023/10/24 09:23:09;;;;;;;19.60;12.32;;;11.20;99.90;;;;;;4990560;28;20103;-79
2023/10/24 09:25:35;;;;;;;16.48;11.52;;;11.20;99.90;;;;;;4988528;28;20058;-78
2023/10/24 09:28:30;;;;;;;20.60;12.80;;;11.30;99.90;;;;;;4988076;28;20600;-79
2023/10/24 09:31:00;;;;;;;18.35;12.55;;;11.30;99.90;;;;;;4970947;28;20184;-80
2023/10/24 09:33:27;;;;;;;19.20;12.18;;;11.20;99.90;;;;;;4978151;28;20050;-80
2023/10/24 09:35:53;;;;;;;19.27;12.27;;;11.20;99.90;;;;;;4961905;28;20355;-79
2023/10/24 09:38:21;;;;;;;17.73;11.50;;;11.20;99.90;;;;;;4975759;28;20062;-80
2023/10/24 09:40:47;;;;;;;17.45;11.93;;;11.30;99.90;;;;;;4961854;28;20072;-80
2023/10/24 09:43:20;;;;;;;16.73;11.35;;;11.20;99.90;;;;;;4962627;28;20457;-80
2023/10/24 09:45:54;;;;;;;19.00;12.25;;;11.20;99.90;;;;;;4963176;28;20599;-79
2023/10/24 09:48:22;;;;;;;19.63;11.77;;;11.20;99.90;;;;;;4980841;28;20045;-78
2023/10/24 09:50:48;;;;;;;18.17;12.30;;;11.20;99.90;;;;;;4980298;28;20058;-80
2023/10/24 09:53:15;;;;;;;19.88;11.23;;;11.20;99.90;;;;;;4977771;28;20132;-79
2023/10/24 09:55:45;;;;;;;20.92;12.52;;;11.20;99.90;;;;;;4978813;28;20427;-79
2023/10/24 09:58:12;;;;;;;18.67;12.53;;;11.20;99.90;;;;;;4962402;28;20787;-79
2023/10/24 10:00:38;;;;;;;18.10;11.93;;;11.20;99.90;;;;;;4976938;28;20128;-78
2023/10/24 10:03:04;;;;;;;24.77;13.40;;;11.20;99.90;;;;;;4979727;28;20391;-78
2023/10/24 10:05:31;;;;;;;18.55;11.98;;;11.20;99.90;;;;;;4977693;28;20088;-78
2023/10/24 10:07:59;;;;;;;18.77;12.77;;;11.10;99.90;;;;;;4979647;28;20049;-78
2023/10/24 10:10:25;;;;;;;19.15;12.57;;;11.40;99.90;;;;;;4973864;28;20062;-79
2023/10/24 10:13:03;;;;;;;19.88;12.73;;;11.20;99.90;;;;;;4976047;28;20045;-78
2023/10/24 10:15:38;;;;;;;19.30;12.52;;;11.20;99.90;;;;;;4961466;28;20041;-79
2023/10/24 10:18:11;;;;;;;20.55;12.95;;;11.20;99.90;;;;;;4959437;28;20069;-78
2023/10/24 10:20:37;;;;;;;20.13;12.68;;;11.20;99.90;;;;;;4955732;28;20161;-77
2023/10/24 10:23:31;;;;;;;17.98;12.38;;;11.20;99.90;;;;;;4968282;28;20534;-78
2023/10/24 10:26:30;;;;;;;19.98;12.45;;;11.20;99.90;;;;;;4958146;28;20098;-79
2023/10/24 10:29:17;;;;;;;19.55;12.80;;;11.20;99.90;;;;;;4958358;28;20373;-78
2023/10/24 10:32:03;;;;;;;21.33;12.90;;;11.20;99.90;;;;;;4972559;28;20083;-78
2023/10/24 10:34:34;;;;;;;18.27;12.40;;;11.20;99.90;;;;;;4978096;28;20049;-78
2023/10/24 10:37:00;;;;;;;20.88;12.40;;;11.30;99.90;;;;;;4975899;28;20120;-78
2023/10/24 10:39:26;;;;;;;18.77;11.80;;;11.20;99.90;;;;;;4957958;28;20699;-78
2023/10/24 10:41:52;;;;;;;17.05;11.57;;;11.20;99.90;;;;;;4978096;28;20068;-78
2023/10/24 10:44:38;;;;;;;17.35;11.63;;;11.30;99.90;;;;;;4977266;28;20061;-77
2023/10/24 10:47:05;;;;;;;17.42;11.20;;;11.20;99.90;;;;;;4977213;28;20406;-78
2023/10/24 10:49:46;;;;;;;17.25;11.13;;;11.20;99.90;;;;;;4976228;28;20050;-78
2023/10/24 10:52:38;;;;;;;19.98;11.98;;;11.20;99.90;;;;;;4977847;28;20078;-78
2023/10/24 10:55:27;;;;;;;17.85;11.70;;;11.20;99.90;;;;;;4977486;28;20044;-78
2023/10/24 10:58:18;;;;;;;18.70;12.25;;;11.30;99.90;;;;;;4978698;28;20041;-78
2023/10/24 11:01:03;;;;;;;19.13;12.30;;;11.30;99.90;;;;;;4961834;28;20430;-77
2023/10/24 11:03:39;;;;;;;17.48;11.27;;;11.30;99.90;;;;;;4962678;28;20041;-77
2023/10/24 11:06:14;;;;;;;21.95;13.60;;;11.30;99.90;;;;;;4977384;28;20962;-77
2023/10/24 11:08:41;;;;;;;19.08;11.75;;;11.30;99.90;;;;;;4973078;28;20054;-77
2023/10/24 11:11:09;;;;;;;19.50;13.05;;;11.40;99.90;;;;;;4956641;28;20180;-78
2023/10/24 11:13:41;;;;;;;17.65;12.27;;;11.40;99.90;;;;;;4979367;28;20052;-78
2023/10/24 11:16:14;;;;;;;20.80;13.15;;;11.40;99.90;;;;;;4961971;28;20065;-78
2023/10/24 11:18:40;;;;;;;19.70;11.52;;;11.40;99.90;;;;;;4975681;28;20602;-77
2023/10/24 11:21:09;;;;;;;18.83;12.57;;;11.50;99.90;;;;;;4963855;28;20050;-77
2023/10/24 11:23:35;;;;;;;20.73;13.25;;;11.40;99.90;;;;;;4963437;28;20045;-78
2023/10/24 11:26:03;;;;;;;21.05;13.40;;;11.50;99.90;;;;;;4979837;28;20077;-78
2023/10/24 11:28:29;;;;;;;19.40;12.73;;;11.50;99.90;;;;;;4975223;28;20049;-77
2023/10/24 11:30:56;;;;;;;21.30;13.40;;;11.50;99.90;;;;;;4959589;28;20129;-77
2023/10/24 11:33:22;;;;;;;19.48;13.45;;;11.50;99.90;;;;;;4978075;28;20546;-77
2023/10/24 11:35:48;;;;;;;19.85;12.73;;;11.50;99.90;;;;;;4979187;28;20049;-77
2023/10/24 11:38:16;;;;;;;20.83;13.40;;;11.50;99.90;;;;;;4959815;28;20529;-77
2023/10/24 11:40:46;;;;;;;18.08;12.95;;;11.60;99.90;;;;;;4961667;28;20426;-77
2023/10/24 11:43:13;;;;;;;19.33;13.80;;;11.60;99.90;;;;;;4980196;28;20042;-77
2023/10/24 11:45:39;;;;;;;18.85;13.50;;;11.60;99.90;;;;;;4983609;28;20046;-76
2023/10/24 11:48:05;;;;;;;21.17;13.30;;;11.70;99.90;;;;;;4974630;28;20046;-77
2023/10/24 11:50:44;;;;;;;19.65;13.63;;;11.70;99.90;;;;;;4976712;28;20086;-78
2023/10/24 11:53:20;;;;;;;18.73;13.15;;;11.60;99.90;;;;;;4974600;28;20580;-78
2023/10/24 11:55:48;;;;;;;21.50;13.15;;;11.70;99.90;;;;;;4976687;28;20057;-78
2023/10/24 11:58:14;;;;;;;18.00;12.93;;;11.80;99.90;;;;;;4959299;28;20053;-78
2023/10/24 12:00:42;;;;;;;18.88;13.27;;;11.70;99.90;;;;;;4977337;28;20414;-76
2023/10/24 12:03:08;;;;;;;19.95;13.00;;;11.70;99.90;;;;;;4974608;28;20058;-77
2023/10/24 12:05:34;;;;;;;18.58;12.90;;;11.70;99.90;;;;;;4960245;28;21742;-77
2023/10/24 12:08:02;;;;;;;20.58;14.07;;;11.80;99.90;;;;;;4978821;28;20046;-77
2023/10/24 12:10:29;;;;;;;19.58;13.18;;;11.70;99.90;;;;;;4987389;28;20049;-79
2023/10/24 12:13:00;;;;;;;22.90;13.20;;;11.70;99.90;;;;;;4987585;28;20065;-77
2023/10/24 12:15:27;;;;;;;;;;;11.80;99.90;;;;;;4970708;28;20062;-78
2023/10/24 12:17:53;;;;;;;18.77;11.85;;;11.70;99.90;;;;;;4980867;28;19932;-78
2023/10/24 12:20:22;;;;;;;16.58;11.70;;;11.80;99.90;;;;;;4975822;28;20205;-76
2023/10/24 12:22:49;;;;;;;17.90;12.75;;;11.80;99.90;;;;;;4961653;28;20495;-77
2023/10/24 12:25:18;;;;;;;17.98;12.15;;;11.80;99.90;;;;;;4964967;28;20511;-77
2023/10/24 12:27:45;;;;;;;19.98;12.48;;;11.80;99.90;;;;;;4980315;28;20052;-77
2023/10/24 12:30:11;;;;;;;17.40;11.15;;;11.80;99.90;;;;;;4967113;28;20249;-76